Time;durP1;ratioP1;P1;durP2;ratioP2;P2;SDS_P1;SDS_P2;PMS_P1;PMS_P2;Temp;Humidity;BMP_temperature;BMP_pressure;BME280_temperature;BME280_humidity;BME280_pressure;Samples;Min_cycle;Max_cycle;Signal;HPM_P1;HPM_P2
2021/04/30 00:00:09;;;;;;;16.05;9.63;;;15.20;99.90;;;;;;4980973;28;20026;-75
2021/04/30 00:02:36;;;;;;;13.93;9.98;;;15.20;99.90;;;;;;5008181;28;20056;-75
2021/04/30 00:05:03;;;;;;;16.42;11.32;;;15.20;99.90;;;;;;5007946;28;20069;-74
2021/04/30 00:07:29;;;;;;;14.43;10.43;;;15.30;99.90;;;;;;5006121;28;20029;-75
2021/04/30 00:09:55;;;;;;;16.65;10.80;;;15.20;99.90;;;;;;4997123;28;20034;-78
2021/04/30 00:12:20;;;;;;;18.25;10.80;;;15.20;99.90;;;;;;4999308;28;20060;-76
2021/04/30 00:14:46;;;;;;;23.10;11.00;;;15.20;99.90;;;;;;5007394;28;20678;-76
2021/04/30 00:17:12;;;;;;;18.00;10.50;;;15.20;99.90;;;;;;5008622;28;20035;-75
2021/04/30 00:19:37;;;;;;;24.10;10.35;;;15.30;99.90;;;;;;5005833;28;20477;-75
2021/04/30 00:22:03;;;;;;;12.85;9.68;;;15.30;99.90;;;;;;5008984;28;20033;-76
2021/04/30 00:24:29;;;;;;;14.35;11.07;;;15.30;99.90;;;;;;5004681;28;20108;-76
2021/04/30 00:26:55;;;;;;;22.10;11.65;;;15.30;99.90;;;;;;4991201;28;20037;-76
2021/04/30 00:29:21;;;;;;;23.27;10.65;;;15.40;99.90;;;;;;4997167;28;20033;-78
2021/04/30 00:31:48;;;;;;;24.38;10.55;;;15.30;99.90;;;;;;4995408;28;20507;-75
2021/04/30 00:34:14;;;;;;;24.48;13.45;;;15.30;99.90;;;;;;5007994;28;20022;-75
2021/04/30 00:36:40;;;;;;;23.45;11.77;;;15.40;99.90;;;;;;5013670;28;20030;-74
2021/04/30 00:39:06;;;;;;;21.17;11.38;;;15.40;99.90;;;;;;5007327;28;20029;-75
2021/04/30 00:41:32;;;;;;;19.15;11.68;;;15.30;99.90;;;;;;5008165;28;20032;-75
2021/04/30 00:44:06;;;;;;;19.95;11.25;;;15.40;99.90;;;;;;5006513;28;20360;-76
2021/04/30 00:46:32;;;;;;;22.05;11.52;;;15.40;99.90;;;;;;5006754;28;20030;-74
2021/04/30 00:48:59;;;;;;;29.25;12.18;;;15.40;99.90;;;;;;5007364;28;20073;-77
2021/04/30 00:51:24;;;;;;;15.30;11.52;;;15.40;99.90;;;;;;4991055;28;20577;-76
2021/04/30 00:53:51;;;;;;;18.63;11.20;;;15.50;99.90;;;;;;5011515;28;20034;-76
2021/04/30 00:56:17;;;;;;;15.88;11.52;;;15.50;99.90;;;;;;5008159;28;20484;-75
2021/04/30 00:58:43;;;;;;;20.05;9.85;;;15.50;99.90;;;;;;5006550;28;20064;-75
2021/04/30 01:01:09;;;;;;;15.32;11.13;;;15.50;99.90;;;;;;5003125;28;20506;-75
2021/04/30 01:03:35;;;;;;;18.75;12.13;;;15.50;99.90;;;;;;5009879;28;20132;-76
2021/04/30 01:06:02;;;;;;;21.40;12.50;;;15.60;99.90;;;;;;5008275;28;20029;-76
2021/04/30 01:08:27;;;;;;;22.42;12.93;;;15.60;99.90;;;;;;5004908;28;20492;-76
2021/04/30 01:10:53;;;;;;;20.48;12.40;;;15.60;99.90;;;;;;5012633;28;20037;-75
2021/04/30 01:13:19;;;;;;;24.20;11.27;;;15.60;99.90;;;;;;5010323;28;20030;-77
2021/04/30 01:15:45;;;;;;;26.55;12.90;;;15.60;99.90;;;;;;5009964;28;20026;-75
2021/04/30 01:18:11;;;;;;;19.40;11.63;;;15.60;99.90;;;;;;5010809;28;20440;-75
2021/04/30 01:20:36;;;;;;;17.17;12.13;;;15.60;99.90;;;;;;5008637;28;20033;-74
2021/04/30 01:23:02;;;;;;;22.75;13.45;;;15.60;99.90;;;;;;5012621;28;20053;-76
2021/04/30 01:25:37;;;;;;;14.75;11.80;;;15.60;99.90;;;;;;5010053;28;20030;-75
2021/04/30 01:28:03;;;;;;;20.73;13.35;;;15.50;99.90;;;;;;5004647;28;20029;-75
2021/04/30 01:30:33;;;;;;;19.33;12.02;;;15.50;99.90;;;;;;5012144;28;20160;-75
2021/04/30 01:32:59;;;;;;;30.80;13.05;;;15.50;99.90;;;;;;5011589;28;20188;-74
2021/04/30 01:35:34;;;;;;;27.38;13.48;;;15.50;99.90;;;;;;5000331;28;20026;-74
2021/04/30 01:38:01;;;;;;;29.85;13.60;;;15.50;99.90;;;;;;5012990;28;20025;-74
2021/04/30 01:40:30;;;;;;;22.75;15.15;;;15.50;99.90;;;;;;4993888;28;20696;-74
2021/04/30 01:43:22;;;;;;;30.67;14.25;;;15.50;99.90;;;;;;5006606;28;20496;-76
2021/04/30 01:46:05;;;;;;;18.40;13.60;;;15.50;99.90;;;;;;5002134;28;20536;-73
2021/04/30 01:48:33;;;;;;;29.52;14.13;;;15.50;99.90;;;;;;5001839;28;20030;-74
2021/04/30 01:51:00;;;;;;;18.70;12.13;;;15.50;99.90;;;;;;5011819;28;20022;-73
2021/04/30 01:53:28;;;;;;;25.65;14.68;;;15.40;99.90;;;;;;5008204;28;20431;-75
2021/04/30 01:55:55;;;;;;;23.80;12.95;;;15.40;99.90;;;;;;5005599;28;20044;-77
2021/04/30 01:58:22;;;;;;;23.95;14.13;;;15.40;99.90;;;;;;5012474;28;20025;-73
2021/04/30 02:00:48;;;;;;;23.05;13.25;;;15.40;99.90;;;;;;5013025;28;20021;-76
2021/04/30 02:03:14;;;;;;;20.27;13.57;;;15.40;99.90;;;;;;5015235;28;20025;-75
2021/04/30 02:05:41;;;;;;;29.83;13.63;;;15.40;99.90;;;;;;5009983;28;20026;-74
2021/04/30 02:08:08;;;;;;;20.65;13.88;;;15.50;99.90;;;;;;4994381;28;20056;-75
2021/04/30 02:10:35;;;;;;;22.27;13.02;;;15.50;99.90;;;;;;5002817;28;20113;-73
2021/04/30 02:13:01;;;;;;;17.38;12.27;;;15.50;99.90;;;;;;5012644;28;20114;-75
2021/04/30 02:15:29;;;;;;;19.40;12.98;;;15.50;99.90;;;;;;5006384;28;20030;-76
2021/04/30 02:17:54;;;;;;;24.27;13.13;;;15.50;99.90;;;;;;5008801;28;20030;-76
2021/04/30 02:20:22;;;;;;;19.75;12.43;;;15.50;99.90;;;;;;4997052;28;20030;-73
2021/04/30 02:22:48;;;;;;;16.75;12.90;;;15.50;99.90;;;;;;4997674;28;20022;-76
2021/04/30 02:25:16;;;;;;;27.25;13.52;;;15.50;99.90;;;;;;5011606;28;20541;-74
2021/04/30 02:27:42;;;;;;;22.75;14.18;;;15.40;99.90;;;;;;5006295;28;20045;-74
2021/04/30 02:30:10;;;;;;;16.73;12.50;;;15.50;99.90;;;;;;5013344;28;20022;-74
2021/04/30 02:32:36;;;;;;;20.92;12.88;;;15.50;99.90;;;;;;4995371;28;20396;-74
2021/04/30 02:35:15;;;;;;;26.77;12.40;;;15.60;99.90;;;;;;5014629;28;20026;-75
2021/04/30 02:37:41;;;;;;;24.10;12.38;;;15.60;99.90;;;;;;4993073;28;20030;-74
2021/04/30 02:40:10;;;;;;;27.95;13.02;;;15.60;99.90;;;;;;5016527;28;20026;-75
2021/04/30 02:42:36;;;;;;;22.00;12.38;;;15.50;99.90;;;;;;5015621;28;20487;-75
2021/04/30 02:45:03;;;;;;;22.48;12.45;;;15.50;99.90;;;;;;5013130;28;20029;-76
2021/04/30 02:47:31;;;;;;;29.35;12.32;;;15.50;99.90;;;;;;5007068;28;20034;-75
2021/04/30 02:50:05;;;;;;;19.17;11.60;;;15.50;99.90;;;;;;5010602;28;20096;-75
2021/04/30 02:52:31;;;;;;;19.10;13.20;;;15.50;99.90;;;;;;5007054;28;20476;-74
2021/04/30 02:54:57;;;;;;;16.10;12.45;;;15.40;99.90;;;;;;4996998;28;20451;-75
2021/04/30 02:57:24;;;;;;;23.98;13.85;;;15.40;99.90;;;;;;4996948;28;20032;-74
2021/04/30 02:59:50;;;;;;;16.20;12.50;;;15.40;99.90;;;;;;5009548;28;20114;-75
2021/04/30 03:02:18;;;;;;;23.27;12.82;;;15.40;99.90;;;;;;4987210;28;20022;-75
2021/04/30 03:04:44;;;;;;;22.95;12.95;;;15.40;99.90;;;;;;5005038;28;20105;-74
2021/04/30 03:07:09;;;;;;;16.00;11.73;;;15.50;99.90;;;;;;5005578;28;20101;-75
2021/04/30 03:09:35;;;;;;;21.58;12.00;;;15.50;99.90;;;;;;5006495;28;20156;-74
2021/04/30 03:12:02;;;;;;;17.67;11.50;;;15.50;99.90;;;;;;5009788;28;20022;-74
2021/04/30 03:14:28;;;;;;;19.42;12.50;;;15.50;99.90;;;;;;5005058;28;20029;-75
2021/04/30 03:16:54;;;;;;;26.95;13.25;;;15.50;99.90;;;;;;5003901;28;20455;-75
2021/04/30 03:19:20;;;;;;;16.70;11.68;;;15.50;99.90;;;;;;5009438;28;20096;-75
2021/04/30 03:21:46;;;;;;;25.08;12.90;;;15.50;99.90;;;;;;5008529;28;20030;-74
2021/04/30 03:24:12;;;;;;;15.80;11.13;;;15.60;99.90;;;;;;5010701;28;20041;-74
2021/04/30 03:26:37;;;;;;;19.42;11.25;;;15.50;99.90;;;;;;5006950;28;20034;-76
2021/04/30 03:29:04;;;;;;;20.92;10.90;;;15.60;99.90;;;;;;5007851;28;20033;-76
2021/04/30 03:31:30;;;;;;;17.67;11.45;;;15.60;99.90;;;;;;5003310;28;20050;-74
2021/04/30 03:33:56;;;;;;;16.73;12.52;;;15.60;99.90;;;;;;5000484;28;20033;-74
2021/04/30 03:36:22;;;;;;;17.13;10.30;;;15.50;99.90;;;;;;5008021;28;20030;-74
2021/04/30 03:38:49;;;;;;;18.88;10.60;;;15.50;99.90;;;;;;5005212;28;20027;-75
2021/04/30 03:41:16;;;;;;;18.05;11.23;;;15.60;99.90;;;;;;5008412;28;20072;-74
2021/04/30 03:43:42;;;;;;;24.35;12.27;;;15.60;99.90;;;;;;4992406;28;20476;-76
2021/04/30 03:46:08;;;;;;;16.27;12.50;;;15.60;99.90;;;;;;5004633;28;20037;-74
2021/04/30 03:48:34;;;;;;;22.65;13.30;;;15.60;99.90;;;;;;5005752;28;20034;-75
2021/04/30 03:50:59;;;;;;;15.65;11.60;;;15.60;99.90;;;;;;5009830;28;20025;-75
2021/04/30 03:53:25;;;;;;;18.20;10.73;;;15.60;99.90;;;;;;4989821;28;20026;-74
2021/04/30 03:55:51;;;;;;;21.85;11.55;;;15.50;99.90;;;;;;4997000;28;20600;-75
2021/04/30 03:58:18;;;;;;;18.35;10.43;;;15.60;99.90;;;;;;5002427;28;20026;-76
2021/04/30 04:00:43;;;;;;;22.40;11.15;;;15.60;99.90;;;;;;5001961;28;20119;-74
2021/04/30 04:03:09;;;;;;;19.75;13.55;;;15.60;99.90;;;;;;5010505;28;20101;-75
2021/04/30 04:05:35;;;;;;;22.58;11.35;;;15.60;99.90;;;;;;5009085;28;20529;-74
2021/04/30 04:08:01;;;;;;;19.90;11.63;;;15.60;99.90;;;;;;5009578;28;20034;-74
2021/04/30 04:10:27;;;;;;;20.05;10.90;;;15.70;99.90;;;;;;5005544;28;20333;-75
2021/04/30 04:12:53;;;;;;;18.05;11.07;;;15.70;99.90;;;;;;5009528;28;20035;-76
2021/04/30 04:15:18;;;;;;;17.92;11.73;;;15.80;99.90;;;;;;5013333;28;20037;-74
2021/04/30 04:17:44;;;;;;;14.65;9.73;;;15.70;99.90;;;;;;5007998;28;20033;-76
2021/04/30 04:20:11;;;;;;;20.35;10.82;;;15.70;99.90;;;;;;4995184;28;20014;-75
2021/04/30 04:22:37;;;;;;;25.25;11.50;;;15.70;99.90;;;;;;5004318;28;20030;-76
2021/04/30 04:25:05;;;;;;;22.63;11.07;;;15.70;99.90;;;;;;4987959;28;20029;-77
2021/04/30 04:27:31;;;;;;;12.75;10.75;;;15.70;99.90;;;;;;4990364;28;20056;-74
2021/04/30 04:29:56;;;;;;;19.92;12.20;;;15.70;99.90;;;;;;5014193;28;20026;-74
2021/04/30 04:32:22;;;;;;;23.27;11.65;;;15.70;99.90;;;;;;5013642;28;20033;-75
2021/04/30 04:34:48;;;;;;;16.73;11.27;;;15.70;99.90;;;;;;5011335;28;20022;-76
2021/04/30 04:37:13;;;;;;;16.65;10.98;;;15.80;99.90;;;;;;5013314;28;20030;-75
2021/04/30 04:39:39;;;;;;;18.50;10.77;;;15.80;99.90;;;;;;5005720;28;20101;-75
2021/04/30 04:42:06;;;;;;;15.38;9.90;;;15.80;99.90;;;;;;5007696;28;20062;-77
2021/04/30 04:44:32;;;;;;;20.95;11.00;;;15.80;99.90;;;;;;5010499;28;20034;-75
2021/04/30 04:46:59;;;;;;;19.13;10.93;;;15.70;99.90;;;;;;5003980;28;20484;-75
2021/04/30 04:49:25;;;;;;;17.80;11.63;;;15.70;99.90;;;;;;5007496;28;20062;-75
2021/04/30 04:51:51;;;;;;;19.05;11.68;;;15.70;99.90;;;;;;5010469;28;20056;-75
2021/04/30 04:54:17;;;;;;;19.40;11.27;;;15.80;99.90;;;;;;5010602;28;20044;-75
2021/04/30 04:56:42;;;;;;;18.95;11.50;;;15.80;99.90;;;;;;5012503;28;20026;-76
2021/04/30 04:59:08;;;;;;;15.05;10.93;;;15.80;99.90;;;;;;4992268;28;20369;-74
2021/04/30 05:01:34;;;;;;;13.23;11.85;;;15.80;99.90;;;;;;5009705;28;20028;-76
2021/04/30 05:04:01;;;;;;;12.80;9.95;;;15.80;99.90;;;;;;5007851;28;20085;-70
2021/04/30 05:06:27;;;;;;;19.13;11.00;;;15.80;99.90;;;;;;5009711;28;20036;-70
2021/04/30 05:08:53;;;;;;;14.93;11.02;;;15.90;99.90;;;;;;5007773;28;20380;-71
2021/04/30 05:11:19;;;;;;;18.35;10.70;;;15.90;99.90;;;;;;5007021;28;20490;-70
2021/04/30 05:13:44;;;;;;;19.67;11.05;;;15.90;99.90;;;;;;5010650;28;20439;-69
2021/04/30 05:16:13;;;;;;;22.42;10.85;;;15.90;99.90;;;;;;5007237;28;20026;-69
2021/04/30 05:18:39;;;;;;;16.73;11.05;;;15.90;99.90;;;;;;5008349;28;20163;-69
2021/04/30 05:21:05;;;;;;;28.67;11.05;;;15.90;99.90;;;;;;5010715;28;20022;-70
2021/04/30 05:23:31;;;;;;;18.88;10.65;;;16.00;99.90;;;;;;4999497;28;20057;-70
2021/04/30 05:25:56;;;;;;;20.48;11.77;;;16.10;99.90;;;;;;4998546;28;20033;-69
2021/04/30 05:28:22;;;;;;;15.30;11.07;;;16.00;99.90;;;;;;4980586;28;20030;-72
2021/04/30 05:30:48;;;;;;;15.88;10.30;;;16.10;99.90;;;;;;4978618;28;20037;-71
2021/04/30 05:33:14;;;;;;;21.15;10.05;;;16.10;99.90;;;;;;4980210;28;20460;-69
2021/04/30 05:35:40;;;;;;;18.17;10.95;;;16.10;99.90;;;;;;5008211;28;20026;-70
2021/04/30 05:38:07;;;;;;;19.25;11.57;;;16.20;99.90;;;;;;4992935;28;20037;-70
2021/04/30 05:40:33;;;;;;;18.25;10.48;;;16.30;99.90;;;;;;5006234;28;20092;-70
2021/04/30 05:43:00;;;;;;;11.05;9.95;;;16.40;99.90;;;;;;5003708;28;20033;-69
2021/04/30 05:45:26;;;;;;;15.55;9.98;;;16.40;99.90;;;;;;5006200;28;20029;-70
2021/04/30 05:47:52;;;;;;;19.33;10.32;;;16.40;99.90;;;;;;5010962;28;20033;-70
2021/04/30 05:50:17;;;;;;;14.15;9.30;;;16.40;99.90;;;;;;5010990;28;20034;-69
2021/04/30 05:52:43;;;;;;;12.45;8.70;;;16.50;99.90;;;;;;5011058;28;20129;-70
2021/04/30 05:55:10;;;;;;;14.50;9.77;;;16.50;99.90;;;;;;5011167;28;20029;-70
2021/04/30 05:57:37;;;;;;;23.83;9.70;;;16.60;99.90;;;;;;5011755;28;20022;-70
2021/04/30 06:00:09;;;;;;;16.33;8.45;;;16.70;99.90;;;;;;5004595;28;20026;-71
2021/04/30 06:02:35;;;;;;;18.25;10.60;;;16.70;99.90;;;;;;4997534;28;20428;-69
2021/04/30 06:05:01;;;;;;;20.30;9.02;;;16.80;99.90;;;;;;5009824;28;20075;-70
2021/04/30 06:07:27;;;;;;;21.15;8.80;;;16.90;99.90;;;;;;4989487;28;20034;-70
2021/04/30 06:09:53;;;;;;;15.95;9.77;;;16.90;99.90;;;;;;4992379;28;20076;-72
2021/04/30 06:12:18;;;;;;;13.35;8.23;;;17.00;99.90;;;;;;4992023;28;20057;-71
2021/04/30 06:14:44;;;;;;;16.15;8.65;;;17.00;99.90;;;;;;5004745;28;20109;-68
2021/04/30 06:17:10;;;;;;;15.40;7.85;;;17.00;99.90;;;;;;5010240;28;20480;-68
2021/04/30 06:19:35;;;;;;;14.50;8.20;;;17.00;99.90;;;;;;5010736;28;20544;-68
2021/04/30 06:22:02;;;;;;;9.43;7.05;;;17.10;99.90;;;;;;5008135;28;20029;-67
2021/04/30 06:24:27;;;;;;;11.77;6.93;;;17.30;99.90;;;;;;5006924;28;20017;-70
2021/04/30 06:26:53;;;;;;;13.45;8.65;;;17.40;99.90;;;;;;5009998;28;20038;-71
2021/04/30 06:29:19;;;;;;;14.07;7.55;;;17.40;99.90;;;;;;5005715;28;20025;-68
2021/04/30 06:31:44;;;;;;;12.52;8.38;;;17.60;99.90;;;;;;5009773;28;20060;-69
2021/04/30 06:34:10;;;;;;;18.42;8.50;;;17.80;99.90;;;;;;4992810;28;20025;-68
2021/04/30 06:36:36;;;;;;;23.02;9.45;;;18.10;99.90;;;;;;5011128;28;20026;-70
2021/04/30 06:39:04;;;;;;;12.95;7.57;;;18.20;99.90;;;;;;5007644;28;20633;-71
2021/04/30 06:41:30;;;;;;;12.82;7.40;;;18.20;99.90;;;;;;5009606;28;20034;-70
2021/04/30 06:43:55;;;;;;;10.77;7.40;;;18.30;99.90;;;;;;5010686;28;20489;-69
2021/04/30 06:46:23;;;;;;;14.07;7.53;;;18.20;99.90;;;;;;5004079;28;20041;-69
2021/04/30 06:48:50;;;;;;;13.05;7.47;;;18.10;99.90;;;;;;5008207;28;20029;-70
2021/04/30 06:51:16;;;;;;;14.48;7.15;;;18.00;99.90;;;;;;5008992;28;20025;-69
2021/04/30 06:53:43;;;;;;;19.63;7.22;;;18.10;99.90;;;;;;5000859;28;20026;-69
2021/04/30 06:56:09;;;;;;;16.35;7.28;;;18.20;99.90;;;;;;5009058;28;20406;-71
2021/04/30 06:58:35;;;;;;;15.43;7.63;;;18.30;99.90;;;;;;4996132;28;20440;-68
2021/04/30 07:01:01;;;;;;;12.32;6.05;;;18.60;99.90;;;;;;4983975;28;20435;-69
2021/04/30 07:03:27;;;;;;;15.60;7.68;;;18.60;99.90;;;;;;4989438;28;20025;-69
2021/04/30 07:05:53;;;;;;;15.70;6.50;;;18.60;99.90;;;;;;5008416;28;20022;-70
2021/04/30 07:08:18;;;;;;;8.20;5.53;;;18.80;99.90;;;;;;5009905;28;20018;-69
2021/04/30 07:10:44;;;;;;;18.42;7.05;;;18.80;99.90;;;;;;5005599;28;20111;-70
2021/04/30 07:13:11;;;;;;;11.27;6.40;;;18.90;99.90;;;;;;5007979;28;20033;-70
2021/04/30 07:15:37;;;;;;;15.20;6.55;;;19.10;99.90;;;;;;5014132;28;20036;-70
2021/04/30 07:18:04;;;;;;;17.55;8.00;;;19.20;99.90;;;;;;5008932;28;20022;-72
2021/04/30 07:20:30;;;;;;;20.38;7.40;;;19.20;99.90;;;;;;5009949;28;20022;-70
2021/04/30 07:22:57;;;;;;;17.38;7.35;;;19.10;99.90;;;;;;5009478;28;20496;-70
2021/04/30 07:25:23;;;;;;;14.15;5.40;;;19.30;99.90;;;;;;5005484;28;20422;-70
2021/04/30 07:27:49;;;;;;;16.52;6.25;;;19.20;99.90;;;;;;5008842;28;20025;-69
2021/04/30 07:30:15;;;;;;;10.25;5.47;;;19.10;99.90;;;;;;5005081;28;20156;-69
2021/04/30 07:32:42;;;;;;;6.68;4.18;;;18.80;99.90;;;;;;5006964;28;20073;-69
2021/04/30 07:35:08;;;;;;;11.27;4.75;;;18.90;99.90;;;;;;5003422;28;20026;-72
2021/04/30 07:37:34;;;;;;;29.27;6.93;;;19.10;99.90;;;;;;5007665;28;20161;-71
2021/04/30 07:40:00;;;;;;;17.92;6.15;;;19.30;99.90;;;;;;5012544;28;20060;-70
2021/04/30 07:42:26;;;;;;;31.23;8.05;;;19.50;99.90;;;;;;5009209;28;20025;-72
2021/04/30 07:44:52;;;;;;;47.75;10.10;;;19.60;99.90;;;;;;5010418;28;20022;-71
2021/04/30 07:47:17;;;;;;;13.93;5.78;;;19.70;99.90;;;;;;5012298;28;20120;-71
2021/04/30 07:49:43;;;;;;;31.67;6.15;;;19.90;99.90;;;;;;5011161;28;20038;-70
2021/04/30 07:52:09;;;;;;;19.73;5.50;;;19.50;99.90;;;;;;5013638;28;20076;-70
2021/04/30 07:54:35;;;;;;;19.38;6.55;;;19.20;99.90;;;;;;5001986;28;20384;-69
2021/04/30 07:57:02;;;;;;;24.45;5.43;;;19.20;99.90;;;;;;5001057;28;20026;-70
2021/04/30 07:59:30;;;;;;;12.38;5.97;;;19.50;99.90;;;;;;5000525;28;20018;-70
2021/04/30 08:01:55;;;;;;;28.63;6.93;;;19.70;99.90;;;;;;5009684;28;20029;-72
2021/04/30 08:04:21;;;;;;;13.43;5.40;;;20.00;99.90;;;;;;5012849;28;20101;-69
2021/04/30 08:06:47;;;;;;;13.45;5.07;;;20.00;99.90;;;;;;5006079;28;21892;-68
2021/04/30 08:09:13;;;;;;;16.48;6.30;;;20.10;99.90;;;;;;4999703;28;20105;-69
2021/04/30 08:11:38;;;;;;;9.40;4.28;;;20.30;99.90;;;;;;5013546;28;20030;-69
2021/04/30 08:14:07;;;;;;;11.07;6.30;;;20.40;99.90;;;;;;5013050;28;20511;-70
2021/04/30 08:16:34;;;;;;;10.27;5.82;;;20.30;99.90;;;;;;5014024;28;20212;-71
2021/04/30 08:19:00;;;;;;;9.38;5.03;;;20.20;99.90;;;;;;4983446;28;20034;-70
2021/04/30 08:21:27;;;;;;;9.85;4.47;;;20.30;99.90;;;;;;4995336;28;20045;-70
2021/04/30 08:23:52;;;;;;;16.27;4.75;;;20.40;99.90;;;;;;5015124;28;20511;-70
2021/04/30 08:26:18;;;;;;;24.15;5.85;;;20.00;99.90;;;;;;4999696;28;20031;-70
2021/04/30 08:28:44;;;;;;;9.75;5.07;;;20.00;99.90;;;;;;4994201;28;20030;-70
2021/04/30 08:31:09;;;;;;;12.00;5.07;;;20.20;99.90;;;;;;4993239;28;20026;-71
2021/04/30 08:33:35;;;;;;;6.95;5.05;;;20.50;99.90;;;;;;4995170;28;20560;-71
2021/04/30 08:36:01;;;;;;;8.95;5.13;;;20.70;99.90;;;;;;5013011;28;20030;-70
2021/04/30 08:38:26;;;;;;;7.88;4.53;;;20.70;99.90;;;;;;5013425;28;20033;-70
2021/04/30 08:40:52;;;;;;;14.80;5.53;;;20.80;99.90;;;;;;5013346;28;20484;-70
2021/04/30 08:43:19;;;;;;;8.15;3.53;;;20.80;99.90;;;;;;5013336;28;20444;-70
2021/04/30 08:45:45;;;;;;;9.77;4.25;;;20.70;99.90;;;;;;5013859;28;20026;-73
2021/04/30 08:48:13;;;;;;;34.92;5.78;;;20.80;99.90;;;;;;5017108;28;20423;-70
2021/04/30 08:50:42;;;;;;;228.95;25.33;;;20.70;99.90;;;;;;5012753;28;20018;-71
2021/04/30 08:53:09;;;;;;;10.88;4.60;;;20.70;99.90;;;;;;5001361;28;20119;-70
2021/04/30 08:55:35;;;;;;;11.52;4.20;;;20.80;99.90;;;;;;5011172;28;20066;-70
2021/04/30 08:58:04;;;;;;;7.50;3.40;;;20.90;99.90;;;;;;5005772;28;20077;-70
2021/04/30 09:00:30;;;;;;;10.68;3.70;;;21.00;99.90;;;;;;4975380;28;20026;-70
2021/04/30 09:02:56;;;;;;;9.45;4.15;;;21.10;99.90;;;;;;4994276;28;20026;-70
2021/04/30 09:05:30;;;;;;;11.57;2.90;;;21.30;99.90;;;;;;4991464;28;20168;-69
2021/04/30 09:07:59;;;;;;;13.35;4.57;;;21.40;99.90;;;;;;5008467;28;20362;-71
2021/04/30 09:10:27;;;;;;;8.77;3.42;;;21.10;99.90;;;;;;5000147;28;20024;-71
2021/04/30 09:13:04;;;;;;;13.30;3.85;;;20.90;99.90;;;;;;5010053;28;20036;-71
2021/04/30 09:15:30;;;;;;;7.50;3.83;;;20.80;99.90;;;;;;5006756;28;20021;-72
2021/04/30 09:18:25;;;;;;;5.40;3.45;;;20.80;99.90;;;;;;5012841;28;20030;-70
2021/04/30 09:20:52;;;;;;;6.72;4.47;;;20.80;99.90;;;;;;5001556;28;20385;-70
2021/04/30 09:23:35;;;;;;;8.18;3.28;;;20.60;99.90;;;;;;4994196;28;20027;-71
2021/04/30 09:26:20;;;;;;;14.80;4.88;;;20.60;99.90;;;;;;5011378;28;20168;-70
2021/04/30 09:29:02;;;;;;;7.13;4.03;;;20.30;99.90;;;;;;5012766;28;20053;-70
2021/04/30 09:31:32;;;;;;;8.48;6.07;;;20.10;99.90;;;;;;5012046;28;20030;-71
2021/04/30 09:34:16;;;;;;;11.13;5.68;;;20.00;99.90;;;;;;5007491;28;20030;-69
2021/04/30 09:36:57;;;;;;;12.57;6.10;;;20.10;99.90;;;;;;5013650;28;20515;-70
2021/04/30 09:39:23;;;;;;;12.65;6.05;;;20.10;99.90;;;;;;5008377;28;20026;-70
2021/04/30 09:42:08;;;;;;;10.20;5.72;;;20.00;99.90;;;;;;5012167;28;20018;-72
2021/04/30 09:44:39;;;;;;;12.32;7.88;;;19.80;99.90;;;;;;5011926;28;20026;-69
2021/04/30 09:47:15;;;;;;;19.20;8.75;;;19.70;99.90;;;;;;5011209;28;20021;-71
2021/04/30 09:49:42;;;;;;;16.75;8.13;;;19.90;99.90;;;;;;5005431;28;20033;-72
2021/04/30 09:52:08;;;;;;;15.60;8.48;;;20.10;99.90;;;;;;4988573;28;20034;-70
2021/04/30 09:54:35;;;;;;;8.68;5.43;;;20.40;99.90;;;;;;4998805;28;20027;-71
2021/04/30 09:57:09;;;;;;;8.50;7.63;;;20.40;99.90;;;;;;4983181;28;20057;-69
2021/04/30 09:59:37;;;;;;;11.77;8.40;;;20.20;99.90;;;;;;4987163;28;20022;-70
2021/04/30 10:02:06;;;;;;;19.50;6.18;;;20.10;99.90;;;;;;5011124;28;20022;-69
2021/04/30 10:04:36;;;;;;;8.90;4.68;;;20.20;99.90;;;;;;5016483;28;20026;-70
2021/04/30 10:07:04;;;;;;;9.85;4.68;;;20.10;99.90;;;;;;5023403;28;20025;-70
2021/04/30 10:09:31;;;;;;;16.23;9.18;;;20.30;99.90;;;;;;5015977;28;20025;-70
2021/04/30 10:11:57;;;;;;;9.63;5.45;;;20.30;99.90;;;;;;4993270;28;20598;-70
2021/04/30 10:14:24;;;;;;;16.40;5.68;;;20.40;99.90;;;;;;4992035;28;20054;-70
2021/04/30 10:16:52;;;;;;;6.22;5.18;;;20.50;99.90;;;;;;4991912;28;20481;-69
2021/04/30 10:19:18;;;;;;;5.82;4.63;;;20.50;99.90;;;;;;5009989;28;20034;-71
2021/04/30 10:21:45;;;;;;;7.63;4.30;;;20.20;99.90;;;;;;5011901;28;20030;-71
2021/04/30 10:24:15;;;;;;;8.85;4.32;;;20.10;99.90;;;;;;5011598;28;20022;-70
2021/04/30 10:26:42;;;;;;;15.02;5.07;;;20.00;99.90;;;;;;5011397;28;20022;-71
2021/04/30 10:29:12;;;;;;;6.85;4.95;;;19.90;99.90;;;;;;5011708;28;20033;-72
2021/04/30 10:31:44;;;;;;;8.55;4.45;;;20.00;99.90;;;;;;5011196;28;20056;-70
2021/04/30 10:34:21;;;;;;;;;;;20.00;99.90;;;;;;5012206;28;20021;-70
2021/04/30 10:36:51;;;;;;;8.68;4.50;;;20.00;99.90;;;;;;5012757;28;19913;-71
2021/04/30 10:39:36;;;;;;;7.53;4.25;;;20.20;99.90;;;;;;5010910;28;20466;-70
2021/04/30 10:42:12;;;;;;;13.02;5.10;;;20.30;99.90;;;;;;5011211;28;20058;-71
2021/04/30 10:44:46;;;;;;;9.15;4.55;;;20.40;99.90;;;;;;4987632;28;20118;-71
2021/04/30 10:47:12;;;;;;;6.90;4.50;;;20.50;99.90;;;;;;4991589;28;20081;-71
2021/04/30 10:49:38;;;;;;;8.50;4.22;;;20.60;99.90;;;;;;5011265;28;20041;-73
2021/04/30 10:52:07;;;;;;;12.05;3.45;;;20.90;99.90;;;;;;5011097;28;20036;-69
2021/04/30 10:54:34;;;;;;;11.20;3.53;;;21.00;99.90;;;;;;5011993;28;20080;-78
2021/04/30 10:57:04;;;;;;;5.35;3.47;;;21.10;99.90;;;;;;5013158;28;20030;-82
2021/04/30 10:59:36;;;;;;;10.73;3.53;;;21.10;99.90;;;;;;5013592;28;20058;-78
2021/04/30 11:02:17;;;;;;;5.88;3.67;;;21.00;99.90;;;;;;5010736;28;20071;-72
2021/04/30 11:05:05;;;;;;;8.35;4.75;;;20.80;99.90;;;;;;5012678;28;20105;-78
2021/04/30 11:07:52;;;;;;;9.55;4.55;;;20.50;99.90;;;;;;5011687;28;20030;-77
2021/04/30 11:10:30;;;;;;;6.90;3.63;;;20.30;99.90;;;;;;5010015;28;20100;-78
2021/04/30 11:12:59;;;;;;;17.98;5.20;;;20.20;99.90;;;;;;5013046;28;20563;-78
2021/04/30 11:15:47;;;;;;;10.80;4.00;;;20.10;99.90;;;;;;5011440;28;20535;-78
2021/04/30 11:18:21;;;;;;;9.65;3.55;;;20.10;99.90;;;;;;5010005;28;20357;-78
2021/04/30 11:21:10;;;;;;;14.43;4.70;;;20.30;99.90;;;;;;5011010;28;20397;-78
2021/04/30 11:23:37;;;;;;;7.68;3.95;;;20.40;99.90;;;;;;5011092;28;20156;-78
2021/04/30 11:26:11;;;;;;;16.02;6.07;;;20.50;99.90;;;;;;5012192;28;20076;-78
2021/04/30 11:28:39;;;;;;;6.10;3.65;;;20.60;99.90;;;;;;5016676;28;20087;-79
2021/04/30 11:31:14;;;;;;;6.53;4.00;;;20.30;99.90;;;;;;5020560;28;20033;-79
2021/04/30 11:33:42;;;;;;;11.60;4.18;;;20.40;99.90;;;;;;5012261;28;20472;-78
2021/04/30 11:36:11;;;;;;;16.25;3.88;;;20.20;99.90;;;;;;5011074;28;20042;-77
2021/04/30 11:38:38;;;;;;;6.78;3.67;;;20.30;99.90;;;;;;5011072;28;20022;-78
2021/04/30 11:41:06;;;;;;;8.82;4.22;;;20.50;99.90;;;;;;5010774;28;20088;-77
2021/04/30 11:43:32;;;;;;;8.90;4.00;;;20.60;99.90;;;;;;5011534;28;20524;-77
2021/04/30 11:45:58;;;;;;;9.75;4.10;;;20.60;99.90;;;;;;5010819;28;20030;-78
2021/04/30 11:48:25;;;;;;;6.15;3.45;;;20.80;99.90;;;;;;5011880;28;20030;-77
2021/04/30 11:51:01;;;;;;;10.20;4.30;;;20.90;99.90;;;;;;5010279;28;20478;-77
2021/04/30 11:53:28;;;;;;;6.30;2.70;;;20.80;99.90;;;;;;5010507;28;20083;-77
2021/04/30 11:55:54;;;;;;;5.25;3.08;;;20.70;99.90;;;;;;4993062;28;20080;-77
2021/04/30 11:58:20;;;;;;;18.35;3.70;;;20.80;99.90;;;;;;5010710;28;20153;-77
2021/04/30 12:00:53;;;;;;;8.90;2.95;;;20.80;99.90;;;;;;4993924;28;20022;-78
2021/04/30 12:03:19;;;;;;;9.57;2.80;;;20.80;99.90;;;;;;5011010;28;20044;-77
2021/04/30 12:05:44;;;;;;;9.18;3.03;;;20.70;99.90;;;;;;5010715;28;20484;-78
2021/04/30 12:08:11;;;;;;;7.45;2.53;;;20.70;99.90;;;;;;5008924;28;20034;-78
2021/04/30 12:10:37;;;;;;;7.53;2.60;;;20.60;99.90;;;;;;5011214;28;20022;-78
2021/04/30 12:13:07;;;;;;;9.38;3.58;;;20.80;99.90;;;;;;5005769;28;20057;-77
2021/04/30 12:15:40;;;;;;;7.63;3.63;;;20.50;99.90;;;;;;5010670;28;20041;-77
2021/04/30 12:18:07;;;;;;;8.88;3.80;;;20.60;99.90;;;;;;4992868;28;20053;-77
2021/04/30 12:20:41;;;;;;;11.70;3.30;;;20.70;99.90;;;;;;5010730;28;20113;-79
2021/04/30 12:23:10;;;;;;;5.25;3.03;;;20.90;99.90;;;;;;5011827;28;20173;-78
2021/04/30 12:25:56;;;;;;;5.55;3.10;;;21.00;99.90;;;;;;5014254;28;20044;-78
2021/04/30 12:28:29;;;;;;;6.22;3.08;;;20.90;99.90;;;;;;5014106;28;20052;-77
2021/04/30 12:31:02;;;;;;;8.85;3.47;;;21.00;99.90;;;;;;5014678;28;20121;-78
2021/04/30 12:33:28;;;;;;;6.25;2.53;;;21.00;99.90;;;;;;4996542;28;20026;-78
2021/04/30 12:35:57;;;;;;;9.15;4.20;;;21.00;99.90;;;;;;5014331;28;20029;-79
2021/04/30 12:38:24;;;;;;;7.63;2.78;;;20.90;99.90;;;;;;5014599;28;20458;-79